createdAt,value
2023-04-06T00:00:12.673Z,8.77
2023-04-06T00:02:39.472Z,9.90
2023-04-06T00:05:07.247Z,8.55
2023-04-06T00:07:34.820Z,9.50
2023-04-06T00:10:01.593Z,9.95
2023-04-06T00:12:28.244Z,8.15
2023-04-06T00:14:54.910Z,8.20
2023-04-06T00:17:21.767Z,10.98
2023-04-06T00:19:48.414Z,10.25
2023-04-06T00:22:15.124Z,9.98
2023-04-06T00:24:41.755Z,8.40
2023-04-06T00:27:08.384Z,10.32
2023-04-06T00:29:35.058Z,10.75
2023-04-06T00:32:01.731Z,14.15
2023-04-06T00:34:28.443Z,8.65
2023-04-06T00:36:55.283Z,9.50
2023-04-06T00:39:22.141Z,9.10
2023-04-06T00:41:52.603Z,10.00
2023-04-06T00:44:20.551Z,10.63
2023-04-06T00:46:47.384Z,8.73
2023-04-06T00:49:14.138Z,9.63
2023-04-06T00:51:40.935Z,10.13
2023-04-06T00:54:07.655Z,8.73
2023-04-06T00:56:36.408Z,8.77
2023-04-06T00:59:03.269Z,10.23
2023-04-06T01:01:33.245Z,9.82
2023-04-06T01:04:04.707Z,12.00
2023-04-06T01:06:38.401Z,8.25
2023-04-06T01:09:05.226Z,10.27
2023-04-06T01:11:32.394Z,13.68
2023-04-06T01:14:00.346Z,9.80
2023-04-06T01:17:01.647Z,9.40
2023-04-06T01:19:31.923Z,11.35
2023-04-06T01:21:58.871Z,7.72
2023-04-06T01:24:31.512Z,10.45
2023-04-06T01:27:03.993Z,10.68
2023-04-06T01:29:53.840Z,12.88
2023-04-06T01:32:55.645Z,8.25
2023-04-06T01:35:53.352Z,9.52
2023-04-06T01:38:21.128Z,11.98
2023-04-06T01:40:49.027Z,10.57
2023-04-06T01:43:18.185Z,13.23
2023-04-06T01:45:59.880Z,9.73
2023-04-06T01:48:32.827Z,10.27
2023-04-06T01:51:02.432Z,8.55
2023-04-06T01:53:32.595Z,8.27
2023-04-06T01:56:04.890Z,8.32
2023-04-06T01:58:35.542Z,10.52
2023-04-06T02:01:03.214Z,11.73
2023-04-06T02:03:37.039Z,12.07
2023-04-06T02:06:08.087Z,13.30
2023-04-06T02:08:39.136Z,11.77
2023-04-06T02:11:06.051Z,12.57
2023-04-06T02:13:41.435Z,12.45
2023-04-06T02:16:09.654Z,14.32
2023-04-06T02:18:36.856Z,15.95
2023-04-06T02:21:03.574Z,12.82
2023-04-06T02:23:30.192Z,10.18
2023-04-06T02:25:57.633Z,16.17
2023-04-06T02:28:24.321Z,12.52
2023-04-06T02:30:51.047Z,9.85
2023-04-06T02:33:18.750Z,10.63
2023-04-06T02:35:47.685Z,15.15
2023-04-06T02:38:14.297Z,12.13
2023-04-06T02:40:41.016Z,12.23
2023-04-06T02:43:18.071Z,10.95
2023-04-06T02:45:45.951Z,11.10
2023-04-06T02:48:13.509Z,11.23
2023-04-06T02:50:40.478Z,15.85
2023-04-06T02:53:08.320Z,13.23
2023-04-06T02:55:37.360Z,10.48
2023-04-06T02:58:04.223Z,15.80
2023-04-06T03:00:38.609Z,14.18
2023-04-06T03:03:05.693Z,11.25
2023-04-06T03:05:32.635Z,10.75
2023-04-06T03:07:59.406Z,12.75
2023-04-06T03:10:36.497Z,16.45
2023-04-06T03:13:03.128Z,15.98
2023-04-06T03:15:50.928Z,13.65
2023-04-06T03:20:50.787Z,15.43
2023-04-06T03:23:21.769Z,10.40
2023-04-06T03:25:52.761Z,13.38
2023-04-06T03:28:21.004Z,14.10
2023-04-06T03:30:57.271Z,14.25
2023-04-06T03:33:42.613Z,12.80
2023-04-06T03:36:14.437Z,11.95
2023-04-06T03:38:43.413Z,13.43
2023-04-06T03:41:14.538Z,12.50
2023-04-06T03:43:45.774Z,15.95
2023-04-06T03:46:12.756Z,12.77
2023-04-06T03:48:39.501Z,13.80
2023-04-06T03:51:07.491Z,16.63
2023-04-06T03:53:34.254Z,13.15
2023-04-06T03:56:03.430Z,16.40
2023-04-06T03:58:31.856Z,14.48
2023-04-06T04:00:58.550Z,14.82
2023-04-06T04:03:27.111Z,13.88
2023-04-06T04:05:54.446Z,15.20
2023-04-06T04:08:21.447Z,15.05
2023-04-06T04:10:48.042Z,14.25
2023-04-06T04:13:14.688Z,14.43
2023-04-06T04:15:44.370Z,13.35
2023-04-06T04:18:11.081Z,17.95
2023-04-06T04:20:40.265Z,20.27
2023-04-06T04:23:08.066Z,12.30
2023-04-06T04:25:35.999Z,14.35
2023-04-06T04:28:03.355Z,13.88
2023-04-06T04:30:30.888Z,16.85
2023-04-06T04:32:57.644Z,11.32
2023-04-06T04:35:24.937Z,12.82
2023-04-06T04:37:51.716Z,14.15
2023-04-06T04:40:18.548Z,16.40
2023-04-06T04:42:52.171Z,12.52
2023-04-06T04:45:31.905Z,14.95
2023-04-06T04:48:05.927Z,13.85
2023-04-06T04:50:45.364Z,14.50
2023-04-06T04:53:13.473Z,18.52
2023-04-06T04:55:41.840Z,15.23
2023-04-06T04:58:10.576Z,15.90
2023-04-06T05:00:48.220Z,14.60
2023-04-06T05:03:23.194Z,13.65
2023-04-06T05:05:57.022Z,13.65
2023-04-06T05:08:26.847Z,15.48
2023-04-06T05:10:53.688Z,18.25
2023-04-06T05:13:21.179Z,14.15
2023-04-06T05:15:49.947Z,12.02
2023-04-06T05:18:26.786Z,13.85
2023-04-06T05:20:54.237Z,14.48
2023-04-06T05:23:27.515Z,14.93
2023-04-06T05:25:54.793Z,15.52
2023-04-06T05:28:23.900Z,18.35
2023-04-06T05:30:50.742Z,14.07
2023-04-06T05:33:17.775Z,15.13
2023-04-06T05:36:06.437Z,16.98
2023-04-06T05:38:34.478Z,12.02
2023-04-06T05:41:09.146Z,12.80
2023-04-06T05:43:36.366Z,13.10
2023-04-06T05:46:03.217Z,29.88
2023-04-06T05:48:29.987Z,17.30
2023-04-06T05:50:57.094Z,12.48
2023-04-06T05:53:30.633Z,15.13
2023-04-06T05:58:30.947Z,15.77
2023-04-06T06:00:59.667Z,15.15
2023-04-06T06:03:28.562Z,18.27
2023-04-06T06:06:01.857Z,16.30
2023-04-06T06:08:35.783Z,17.08
2023-04-06T06:11:06.860Z,14.32
2023-04-06T06:13:33.564Z,13.95
2023-04-06T06:16:01.388Z,14.35
2023-04-06T06:18:28.200Z,15.82
2023-04-06T06:20:56.133Z,15.10
2023-04-06T06:23:22.842Z,14.02
2023-04-06T06:25:49.856Z,13.68
2023-04-06T06:28:17.446Z,11.57
2023-04-06T06:30:44.237Z,11.82
2023-04-06T06:33:11.251Z,12.38
2023-04-06T06:35:38.438Z,12.40
2023-04-06T06:38:06.366Z,11.98
2023-04-06T06:40:34.670Z,12.93
2023-04-06T06:43:01.749Z,15.85
2023-04-06T06:45:34.395Z,12.95
2023-04-06T06:48:02.412Z,12.73
2023-04-06T06:50:29.086Z,13.88
2023-04-06T06:52:55.860Z,11.43
2023-04-06T06:55:22.558Z,15.73
2023-04-06T06:57:49.524Z,19.50
2023-04-06T07:00:16.664Z,14.27
2023-04-06T07:05:24.282Z,13.35
2023-04-06T07:07:55.125Z,14.60
2023-04-06T07:10:21.888Z,13.82
2023-04-06T07:12:48.557Z,13.13
2023-04-06T07:15:15.412Z,13.52
2023-04-06T07:17:42.500Z,16.45
2023-04-06T07:20:10.084Z,13.65
2023-04-06T07:22:36.835Z,15.82
2023-04-06T07:25:03.702Z,15.95
2023-04-06T07:27:30.408Z,13.35
2023-04-06T07:29:57.198Z,14.77
2023-04-06T07:32:25.498Z,12.70
2023-04-06T07:34:52.346Z,14.27
2023-04-06T07:37:19.440Z,17.20
2023-04-06T07:39:48.195Z,11.77
2023-04-06T07:42:15.353Z,14.93
2023-04-06T07:44:43.250Z,15.32
2023-04-06T07:47:11.759Z,16.42
2023-04-06T07:49:38.417Z,12.43
2023-04-06T07:52:06.322Z,12.45
2023-04-06T07:54:33.762Z,16.08
2023-04-06T07:57:00.646Z,14.93
2023-04-06T07:59:27.341Z,13.27
2023-04-06T08:01:54.019Z,18.48
2023-04-06T08:04:21.341Z,11.20
2023-04-06T08:06:48.094Z,11.35
2023-04-06T08:09:14.713Z,13.75
2023-04-06T08:11:41.599Z,13.75
2023-04-06T08:14:08.611Z,14.73
2023-04-06T08:16:35.720Z,11.57
2023-04-06T08:19:02.339Z,12.27
2023-04-06T08:21:28.982Z,12.10
2023-04-06T08:23:55.610Z,12.70
2023-04-06T08:26:22.252Z,13.68
2023-04-06T08:28:48.920Z,13.98
2023-04-06T08:31:15.659Z,9.40
2023-04-06T08:33:42.434Z,10.65
2023-04-06T08:36:13.756Z,10.18
2023-04-06T08:38:41.884Z,14.68
2023-04-06T08:41:12.824Z,9.93
2023-04-06T08:43:50.963Z,10.18
2023-04-06T08:46:19.716Z,12.48
2023-04-06T08:48:49.717Z,11.53
2023-04-06T08:51:17.021Z,10.93
2023-04-06T08:53:43.617Z,10.35
2023-04-06T08:56:11.639Z,10.90
2023-04-06T08:58:40.651Z,10.68
2023-04-06T09:01:12.202Z,10.30
2023-04-06T09:03:42.052Z,12.48
2023-04-06T09:06:10.003Z,10.50
2023-04-06T09:08:39.840Z,13.43
2023-04-06T09:11:06.654Z,13.48
2023-04-06T09:13:45.722Z,15.00
2023-04-06T09:18:39.024Z,11.10
2023-04-06T09:21:07.747Z,9.98
2023-04-06T09:23:35.295Z,11.77
2023-04-06T09:26:08.311Z,15.77
2023-04-06T09:28:58.203Z,12.52
2023-04-06T09:31:30.588Z,12.60
2023-04-06T09:33:58.082Z,11.65
2023-04-06T09:36:39.318Z,12.40
2023-04-06T09:39:06.274Z,12.77
2023-04-06T09:41:36.672Z,13.35
2023-04-06T09:44:11.454Z,13.10
2023-04-06T09:46:58.604Z,13.82
2023-04-06T09:49:28.853Z,11.00
2023-04-06T09:52:02.662Z,12.48
2023-04-06T09:54:31.288Z,15.80
2023-04-06T09:57:26.836Z,16.17
2023-04-06T10:00:15.144Z,18.70
2023-04-06T10:03:09.823Z,14.43
2023-04-06T10:05:53.238Z,14.60
2023-04-06T10:08:21.934Z,13.05
2023-04-06T10:10:48.978Z,13.33
2023-04-06T10:13:16.202Z,20.13
2023-04-06T10:15:43.859Z,14.00
2023-04-06T10:18:10.810Z,15.90
2023-04-06T10:20:58.513Z,17.27
2023-04-06T10:23:34.461Z,19.10
2023-04-06T10:26:02.537Z,15.73
2023-04-06T10:28:37.208Z,17.55
2023-04-06T10:31:07.453Z,13.52
2023-04-06T10:33:34.710Z,18.20
2023-04-06T10:36:15.646Z,15.82
2023-04-06T10:38:43.478Z,15.82
2023-04-06T10:41:12.355Z,14.32
2023-04-06T10:43:41.135Z,15.77
2023-04-06T10:46:09.679Z,15.95
2023-04-06T10:48:46.334Z,19.02
2023-04-06T10:51:21.387Z,18.70
2023-04-06T10:53:49.913Z,14.82
2023-04-06T10:56:18.352Z,17.27
2023-04-06T10:58:49.805Z,17.88
2023-04-06T11:01:18.046Z,16.38
2023-04-06T11:03:52.585Z,17.40
2023-04-06T11:06:31.727Z,13.30
2023-04-06T11:08:59.342Z,20.30
2023-04-06T11:11:27.656Z,16.55
2023-04-06T11:13:57.250Z,15.67
2023-04-06T11:16:24.914Z,18.80
2023-04-06T11:18:57.237Z,23.48
2023-04-06T11:21:33.420Z,17.00
2023-04-06T11:24:14.383Z,17.27
2023-04-06T11:26:49.481Z,18.92
2023-04-06T11:29:18.959Z,16.00
2023-04-06T11:32:05.531Z,15.68
2023-04-06T11:34:36.419Z,17.27
2023-04-06T11:37:12.872Z,15.70
2023-04-06T11:39:51.636Z,19.48
2023-04-06T11:42:25.302Z,15.88
2023-04-06T11:45:03.435Z,21.10
2023-04-06T11:47:37.532Z,15.68
2023-04-06T11:50:09.328Z,14.18
2023-04-06T11:52:36.116Z,14.50
2023-04-06T11:55:14.035Z,17.15
2023-04-06T11:57:41.529Z,16.00
2023-04-06T12:00:10.464Z,18.50
2023-04-06T12:02:38.642Z,13.32
2023-04-06T12:05:08.871Z,15.18
2023-04-06T12:07:36.232Z,15.30
2023-04-06T12:10:04.394Z,15.75
2023-04-06T12:12:31.163Z,20.08
2023-04-06T12:14:58.076Z,15.00
2023-04-06T12:17:27.293Z,14.13
2023-04-06T12:19:54.153Z,13.25
2023-04-06T12:22:20.896Z,13.98
2023-04-06T12:24:47.770Z,15.63
2023-04-06T12:27:14.710Z,17.17
2023-04-06T12:29:41.573Z,15.75
2023-04-06T12:32:14.170Z,17.67
2023-04-06T12:34:40.991Z,19.15
2023-04-06T12:37:07.713Z,20.13
2023-04-06T12:39:34.426Z,15.25
2023-04-06T12:42:02.452Z,17.52
2023-04-06T12:44:29.828Z,14.68
2023-04-06T12:46:57.290Z,19.77
2023-04-06T12:49:24.029Z,14.95
2023-04-06T12:51:51.751Z,16.60
2023-04-06T12:54:18.462Z,18.85
2023-04-06T12:56:45.151Z,15.00
2023-04-06T12:59:12.395Z,13.68
2023-04-06T13:01:39.057Z,13.65
2023-04-06T13:04:05.678Z,12.50
2023-04-06T13:06:32.344Z,14.10
2023-04-06T13:08:59.078Z,16.67
2023-04-06T13:11:28.653Z,15.32
2023-04-06T13:13:55.913Z,16.50
2023-04-06T13:16:22.882Z,14.95
2023-04-06T13:18:49.752Z,14.98
2023-04-06T13:21:17.779Z,14.98
2023-04-06T13:23:45.053Z,16.42
2023-04-06T13:26:14.409Z,13.88
2023-04-06T13:31:09.476Z,19.90
2023-04-06T13:33:36.781Z,15.63
2023-04-06T13:36:03.796Z,15.52
2023-04-06T13:38:30.950Z,16.75
2023-04-06T13:40:57.635Z,17.25
2023-04-06T13:43:27.071Z,15.88
2023-04-06T13:48:23.323Z,19.17
2023-04-06T13:50:50.172Z,18.67
2023-04-06T13:53:16.806Z,17.52
2023-04-06T13:55:43.424Z,17.25
2023-04-06T13:58:10.287Z,17.90
2023-04-06T14:00:37.943Z,16.10
2023-04-06T14:03:05.113Z,17.63
2023-04-06T14:05:33.136Z,19.27
2023-04-06T14:07:59.804Z,21.13
2023-04-06T14:10:28.436Z,20.42
2023-04-06T14:12:55.472Z,20.30
2023-04-06T14:15:22.942Z,22.80
2023-04-06T14:17:50.075Z,21.35
2023-04-06T14:20:17.025Z,24.42
2023-04-06T14:22:43.961Z,21.95
2023-04-06T14:25:12.224Z,21.23
2023-04-06T14:27:39.672Z,19.40
2023-04-06T14:30:07.127Z,19.75
2023-04-06T14:32:33.969Z,21.13
2023-04-06T14:35:00.908Z,23.23
2023-04-06T14:37:27.938Z,21.27
2023-04-06T14:39:54.701Z,19.90
2023-04-06T14:42:21.387Z,26.05
2023-04-06T14:44:49.640Z,19.02
2023-04-06T14:47:21.427Z,24.17
2023-04-06T14:49:51.533Z,20.83
2023-04-06T14:52:18.430Z,18.42
2023-04-06T14:54:45.238Z,21.58
2023-04-06T14:57:17.404Z,23.20
2023-04-06T14:59:43.943Z,22.73
2023-04-06T15:02:10.783Z,21.25
2023-04-06T15:04:37.633Z,29.77
2023-04-06T15:07:04.565Z,20.35
2023-04-06T15:09:31.712Z,18.50
2023-04-06T15:11:58.430Z,21.00
2023-04-06T15:14:25.292Z,25.30
2023-04-06T15:16:51.829Z,20.23
2023-04-06T15:19:18.491Z,20.45
2023-04-06T15:21:45.036Z,21.35
2023-04-06T15:24:11.774Z,22.30
2023-04-06T15:26:38.477Z,21.35
2023-04-06T15:29:05.237Z,18.92
2023-04-06T15:31:37.654Z,21.42
2023-04-06T15:34:08.764Z,25.08
2023-04-06T15:36:36.324Z,23.33
2023-04-06T15:39:04.138Z,17.02
2023-04-06T15:41:30.783Z,15.88
2023-04-06T15:43:57.593Z,19.95
2023-04-06T15:46:24.441Z,20.77
2023-04-06T15:48:51.057Z,18.58
2023-04-06T15:51:18.005Z,20.13
2023-04-06T15:53:45.428Z,17.17
2023-04-06T15:56:14.466Z,15.95
2023-04-06T15:58:42.166Z,19.35
2023-04-06T16:01:16.934Z,17.30
2023-04-06T16:03:44.807Z,22.25
2023-04-06T16:06:11.637Z,20.25
2023-04-06T16:08:39.775Z,20.30
2023-04-06T16:11:06.432Z,20.17
2023-04-06T16:13:33.363Z,18.20
2023-04-06T16:16:00.165Z,18.05
2023-04-06T16:18:27.281Z,17.98
2023-04-06T16:20:54.082Z,19.88
2023-04-06T16:23:20.775Z,21.52
2023-04-06T16:25:47.393Z,17.65
2023-04-06T16:28:14.102Z,21.17
2023-04-06T16:30:42.488Z,19.08
2023-04-06T16:33:11.546Z,18.88
2023-04-06T16:35:48.105Z,20.70
2023-04-06T16:38:15.949Z,16.35
2023-04-06T16:40:42.650Z,15.55
2023-04-06T16:43:10.067Z,19.80
2023-04-06T16:45:38.075Z,16.02
2023-04-06T16:48:04.957Z,18.85
2023-04-06T16:50:31.578Z,14.85
2023-04-06T16:52:58.639Z,17.02
2023-04-06T16:55:25.403Z,17.52
2023-04-06T16:57:55.882Z,15.85
2023-04-06T17:00:22.654Z,17.38
2023-04-06T17:02:49.376Z,20.70
2023-04-06T17:05:18.146Z,17.60
2023-04-06T17:07:44.763Z,21.57
2023-04-06T17:10:11.410Z,16.48
2023-04-06T17:12:38.013Z,15.18
2023-04-06T17:15:04.968Z,14.85
2023-04-06T17:17:31.575Z,16.40
2023-04-06T17:19:58.262Z,16.45
2023-04-06T17:22:24.894Z,17.10
2023-04-06T17:24:51.451Z,14.25
2023-04-06T17:27:18.843Z,17.73
2023-04-06T17:29:45.434Z,12.80
2023-04-06T17:32:12.241Z,14.32
2023-04-06T17:34:38.946Z,16.42
2023-04-06T17:37:05.846Z,15.55
2023-04-06T17:39:32.851Z,14.20
2023-04-06T17:42:00.092Z,15.23
2023-04-06T17:44:27.006Z,15.23
2023-04-06T17:46:53.714Z,16.40
2023-04-06T17:49:20.419Z,17.67
2023-04-06T17:51:47.091Z,17.58
2023-04-06T17:54:13.844Z,14.93
2023-04-06T17:56:40.891Z,15.75
2023-04-06T17:59:10.497Z,12.70
2023-04-06T18:01:40.509Z,15.00
2023-04-06T18:04:07.376Z,11.95
2023-04-06T18:06:34.000Z,20.52
2023-04-06T18:09:01.043Z,18.75
2023-04-06T18:11:30.925Z,15.05
2023-04-06T18:13:58.261Z,13.82
2023-04-06T18:16:25.349Z,12.48
2023-04-06T18:18:52.136Z,11.07
2023-04-06T18:21:18.991Z,12.20
2023-04-06T18:23:46.528Z,12.40
2023-04-06T18:26:18.348Z,14.40
2023-04-06T18:28:45.797Z,15.15
2023-04-06T18:31:12.534Z,13.48
2023-04-06T18:33:39.290Z,15.30
2023-04-06T18:36:06.438Z,17.88
2023-04-06T18:38:33.091Z,17.42
2023-04-06T18:40:59.718Z,15.45
2023-04-06T18:43:26.385Z,15.60
2023-04-06T18:45:52.964Z,17.38
2023-04-06T18:48:19.737Z,16.80
2023-04-06T18:50:54.195Z,14.35
2023-04-06T18:53:21.229Z,16.40
2023-04-06T18:55:47.857Z,18.67
2023-04-06T18:58:14.447Z,17.13
2023-04-06T19:00:41.977Z,20.35
2023-04-06T19:03:08.847Z,17.50
2023-04-06T19:05:36.118Z,15.25
2023-04-06T19:08:02.746Z,15.40
2023-04-06T19:10:29.637Z,17.95
2023-04-06T19:12:57.838Z,17.88
2023-04-06T19:15:24.646Z,15.00
2023-04-06T19:17:51.378Z,13.02
2023-04-06T19:20:18.094Z,15.30
2023-04-06T19:22:44.940Z,15.27
2023-04-06T19:25:12.084Z,15.85
2023-04-06T19:27:39.391Z,13.45
2023-04-06T19:30:06.772Z,14.23
2023-04-06T19:32:33.483Z,15.85
2023-04-06T19:35:01.508Z,14.75
2023-04-06T19:37:28.192Z,13.07
2023-04-06T19:39:54.818Z,15.05
2023-04-06T19:42:21.820Z,17.52
2023-04-06T19:44:48.640Z,13.82
2023-04-06T19:47:15.390Z,13.13
2023-04-06T19:49:42.123Z,12.38
2023-04-06T19:52:10.065Z,16.48
2023-04-06T19:54:38.183Z,15.20
2023-04-06T19:57:04.964Z,13.60
2023-04-06T19:59:31.842Z,13.93
2023-04-06T20:01:58.516Z,15.70
2023-04-06T20:04:25.927Z,14.40
2023-04-06T20:06:53.638Z,15.48
2023-04-06T20:09:21.719Z,13.63
2023-04-06T20:11:48.303Z,13.70
2023-04-06T20:14:15.873Z,15.95
2023-04-06T20:16:42.613Z,14.38
2023-04-06T20:19:09.293Z,17.45
2023-04-06T20:21:37.369Z,15.98
2023-04-06T20:24:05.285Z,17.17
2023-04-06T20:26:31.921Z,15.15
2023-04-06T20:28:58.509Z,17.27
2023-04-06T20:31:28.920Z,15.55
2023-04-06T20:33:56.015Z,16.40
2023-04-06T20:36:22.561Z,16.40
2023-04-06T20:38:49.179Z,17.35
2023-04-06T20:41:16.330Z,16.58
2023-04-06T20:43:43.041Z,18.55
2023-04-06T20:46:16.113Z,18.23
2023-04-06T20:48:42.699Z,18.38
2023-04-06T20:51:18.152Z,17.25
2023-04-06T20:53:45.015Z,18.50
2023-04-06T20:56:11.647Z,16.52
2023-04-06T20:58:38.240Z,17.92
2023-04-06T21:01:04.853Z,19.27
2023-04-06T21:03:31.665Z,20.38
2023-04-06T21:05:58.919Z,17.25
2023-04-06T21:08:25.902Z,18.67
2023-04-06T21:10:52.517Z,18.45
2023-04-06T21:13:19.139Z,18.90
2023-04-06T21:15:45.712Z,17.27
2023-04-06T21:18:12.518Z,17.05
2023-04-06T21:20:40.003Z,18.40
2023-04-06T21:23:06.731Z,18.58
2023-04-06T21:25:35.991Z,19.88
2023-04-06T21:28:02.748Z,17.42
2023-04-06T21:30:29.452Z,18.25
2023-04-06T21:32:56.038Z,18.73
2023-04-06T21:35:22.675Z,17.60
2023-04-06T21:37:49.241Z,18.30
2023-04-06T21:40:15.917Z,17.98
2023-04-06T21:42:42.488Z,19.27
2023-04-06T21:45:09.351Z,17.35
2023-04-06T21:47:36.216Z,23.02
2023-04-06T21:50:04.134Z,20.27
2023-04-06T21:52:30.717Z,21.27
2023-04-06T21:54:57.560Z,17.88
2023-04-06T21:57:24.139Z,19.73
2023-04-06T21:59:50.823Z,19.45
2023-04-06T22:02:17.493Z,18.55
2023-04-06T22:04:44.327Z,27.75
2023-04-06T22:07:11.308Z,18.98
2023-04-06T22:09:37.879Z,22.92
2023-04-06T22:12:04.525Z,24.85
2023-04-06T22:14:31.538Z,23.25
2023-04-06T22:16:58.058Z,19.98
2023-04-06T22:19:24.737Z,21.92
2023-04-06T22:21:57.530Z,20.95
2023-04-06T22:24:24.069Z,22.55
2023-04-06T22:26:50.812Z,22.77
2023-04-06T22:29:17.410Z,24.13
2023-04-06T22:31:46.688Z,23.60
2023-04-06T22:34:13.737Z,21.83
2023-04-06T22:36:40.336Z,20.52
2023-04-06T22:39:06.912Z,23.23
2023-04-06T22:41:33.627Z,22.85
2023-04-06T22:44:00.421Z,22.73
2023-04-06T22:46:27.061Z,20.90
2023-04-06T22:48:53.663Z,23.67
2023-04-06T22:51:20.653Z,19.52
2023-04-06T22:53:47.175Z,21.75
2023-04-06T22:56:13.675Z,18.83
2023-04-06T22:58:40.241Z,24.85
2023-04-06T23:01:07.572Z,23.90
2023-04-06T23:03:34.241Z,22.55
2023-04-06T23:06:00.846Z,20.83
2023-04-06T23:08:27.441Z,22.88
2023-04-06T23:10:54.004Z,19.20
2023-04-06T23:13:20.606Z,21.83
2023-04-06T23:15:47.161Z,22.25
2023-04-06T23:18:13.702Z,19.88
2023-04-06T23:20:40.396Z,19.92
2023-04-06T23:23:06.980Z,20.40
2023-04-06T23:25:33.535Z,19.15
2023-04-06T23:28:00.122Z,19.17
2023-04-06T23:30:26.963Z,18.38
2023-04-06T23:32:53.587Z,20.20
2023-04-06T23:35:20.126Z,18.25
2023-04-06T23:37:46.636Z,20.45
2023-04-06T23:40:13.165Z,19.38
2023-04-06T23:42:39.746Z,19.25
2023-04-06T23:45:07.032Z,18.33
2023-04-06T23:47:33.697Z,21.70
2023-04-06T23:50:00.444Z,17.67
2023-04-06T23:52:29.668Z,23.10
2023-04-06T23:54:56.275Z,19.77
2023-04-06T23:57:22.877Z,20.33
2023-04-06T23:59:49.503Z,16.75
